Terminal Aerodrome Forecast
Issued by NWS

Home | Current Version | Previous Version | Text Only | Print | Product List | Glossary Off
Versions: 1 2 3 4 5 6 7 8 9 10 11 12 13 14 15 16 17 18 19 20 21 22 23 24 25 26 27 28 29 30 31 32 33 34 35 36 37

000
FTUS43 KGRB 231721
TAFATW
TAF
KATW 231721Z 2318/2418 VRB03KT P6SM SCT030 BKN120
     FM232200 30004KT P6SM BKN080
     FM240300 32008KT P6SM VCSH SCT025 OVC050
      TEMPO 2403/2406 5SM -RA BR BKN025
     FM240600 32012G20KT 5SM -RA BR SCT006 OVC015
     FM240900 31013G22KT 4SM -RA BR OVC006
     FM241500 30020G35KT 5SM -RA BR OVC015=

USA.gov is the U.S. government's official web portal to all federal, state and local government web resources and services.